Time;durP1;ratioP1;P1;durP2;ratioP2;P2;SDS_P1;SDS_P2;PMS_P1;PMS_P2;Temp;Humidity;BMP_temperature;BMP_pressure;BME280_temperature;BME280_humidity;BME280_pressure;Samples;Min_cycle;Max_cycle;Signal;HPM_P1;HPM_P2
2023/12/07 00:00:50;;;;;;;16.70;9.20;;;;;;;-147.86;100.00;46039.11;105546;1256;72603;-45
2023/12/07 00:03:18;;;;;;;16.10;9.70;;;;;;;-147.86;100.00;46041.07;105533;1261;59744;-48
2023/12/07 00:05:46;;;;;;;18.60;10.40;;;;;;;-147.86;100.00;46039.89;105584;1261;59680;-45
2023/12/07 00:08:13;;;;;;;16.30;9.30;;;;;;;-147.86;100.00;46041.07;105244;1260;73490;-45
2023/12/07 00:10:41;;;;;;;14.20;8.10;;;;;;;-147.86;100.00;46039.50;105192;1256;64699;-43
2023/12/07 00:13:09;;;;;;;13.30;8.00;;;;;;;-147.86;100.00;46040.28;105235;1260;71354;-43
2023/12/07 00:15:36;;;;;;;18.20;9.10;;;;;;;-147.86;100.00;46041.46;105472;1260;59619;-42
2023/12/07 00:18:04;;;;;;;18.50;7.70;;;;;;;-147.86;100.00;46037.54;105585;1259;59535;-47
2023/12/07 00:35:28;;;;;;;16.40;9.60;;;;;;;-147.86;100.00;46051.26;105583;1260;59741;-44
2023/12/07 00:37:56;;;;;;;15.20;9.30;;;;;;;-147.86;100.00;46045.38;105654;1256;71756;-43
2023/12/07 00:40:24;;;;;;;15.60;9.90;;;;;;;-147.86;100.00;46036.76;105618;1257;63065;-43
2023/12/07 00:42:52;;;;;;;18.60;9.80;;;;;;;-147.86;100.00;46031.66;105575;1257;71397;-45
2023/12/07 00:45:20;;;;;;;22.30;9.70;;;;;;;-147.86;100.00;46026.57;105639;1256;59926;-46
2023/12/07 00:47:48;;;;;;;13.80;9.30;;;;;;;-147.86;100.00;46020.69;105556;1262;59640;-47
2023/12/07 00:50:16;;;;;;;18.40;10.30;;;;;;;-147.86;100.00;46009.32;105572;1256;71779;-45
2023/12/07 00:52:43;;;;;;;19.90;9.90;;;;;;;-147.86;100.00;46003.06;105544;1256;65201;-45
2023/12/07 00:55:11;;;;;;;16.80;9.70;;;;;;;-147.86;100.00;45989.73;105565;1256;72680;-42
2023/12/07 00:57:40;;;;;;;17.70;10.40;;;;;;;-147.86;100.00;45977.59;105538;1262;59791;-46
2023/12/07 01:00:08;;;;;;;16.10;10.00;;;;;;;-147.86;100.00;45964.26;105626;1259;60015;-44
2023/12/07 01:02:36;;;;;;;17.50;9.40;;;;;;;-147.86;100.00;45948.20;105546;1261;72529;-44
2023/12/07 01:05:04;;;;;;;18.90;10.10;;;;;;;-147.86;100.00;45929.78;105610;1256;63912;-42
2023/12/07 01:07:33;;;;;;;14.50;9.40;;;;;;;-147.86;100.00;45918.42;105589;1262;72613;-44
2023/12/07 01:10:00;;;;;;;19.80;10.90;;;;;;;-147.86;100.00;45906.27;105543;1257;59737;-46
2023/12/07 01:12:28;;;;;;;16.20;9.90;;;;;;;-147.86;100.00;45897.26;105568;1262;59587;-44
2023/12/07 01:14:56;;;;;;;18.00;9.90;;;;;;;-147.86;100.00;45889.42;105598;1260;72094;-42
2023/12/07 01:17:23;;;;;;;16.10;9.80;;;;;;;-147.86;100.00;45885.90;105588;1256;64076;-45
2023/12/07 01:19:51;;;;;;;19.80;10.90;;;;;;;-147.86;100.00;45877.27;105441;1262;72589;-44
2023/12/07 01:22:20;;;;;;;16.90;10.10;;;;;;;-147.86;100.00;45875.71;105610;1262;59698;-42
2023/12/07 01:24:48;;;;;;;19.70;10.70;;;;;;;-147.86;100.00;45868.65;105603;1262;59673;-43
2023/12/07 01:27:16;;;;;;;17.20;10.60;;;;;;;-147.86;100.00;45869.82;105580;1256;71468;-44
2023/12/07 01:29:43;;;;;;;17.50;10.30;;;;;;;-147.86;100.00;45862.39;105598;1262;64007;-42
2023/12/07 01:32:11;;;;;;;17.70;10.00;;;;;;;-147.86;100.00;45853.37;105592;1257;71482;-42
2023/12/07 01:34:39;;;;;;;17.30;10.70;;;;;;;-147.86;100.00;45853.38;105543;1256;59666;-44
2023/12/07 01:37:07;;;;;;;19.80;11.10;;;;;;;-147.86;100.00;45847.89;105629;1260;59624;-42
2023/12/07 01:39:35;;;;;;;16.00;10.50;;;;;;;-147.86;100.00;45842.40;105629;1256;73021;-41
2023/12/07 01:42:03;;;;;;;19.20;11.10;;;;;;;-147.86;100.00;45835.35;105568;1256;64054;-44
2023/12/07 01:44:31;;;;;;;20.60;12.10;;;;;;;-147.86;100.00;45833.78;105544;1262;71375;-45
2023/12/07 01:46:58;;;;;;;18.90;11.10;;;;;;;-147.86;100.00;45835.35;105567;1262;59613;-44
2023/12/07 01:49:26;;;;;;;17.50;11.40;;;;;;;-147.86;100.00;45827.51;105559;1256;59609;-41
2023/12/07 01:51:54;;;;;;;21.20;11.90;;;;;;;-147.86;100.00;45829.08;105551;1256;72976;-41
2023/12/07 01:54:21;;;;;;;17.80;10.20;;;;;;;-147.86;100.00;45825.95;105612;1261;65173;-44
2023/12/07 01:56:51;;;;;;;19.40;11.30;;;;;;;-147.86;100.00;45825.95;105604;1262;70382;-43
2023/12/07 01:59:18;;;;;;;24.80;11.80;;;;;;;-147.86;100.00;45824.77;105639;1256;59669;-47
2023/12/07 02:01:47;;;;;;;23.20;11.60;;;;;;;-147.86;100.00;45827.51;105596;1256;59963;-48
2023/12/07 02:04:19;;;;;;;23.60;11.40;;;;;;;-147.86;100.00;45829.08;105518;1257;71822;-47
2023/12/07 02:06:48;;;;;;;22.60;11.20;;;;;;;-147.86;100.00;45833.00;105382;1256;64014;-46
2023/12/07 02:09:16;;;;;;;24.80;11.40;;;;;;;-147.86;100.00;45834.96;105299;1256;72389;-41
2023/12/07 02:11:44;;;;;;;19.00;10.70;;;;;;;-147.86;100.00;45837.30;105192;1256;59684;-47
2023/12/07 02:14:11;;;;;;;18.40;11.20;;;;;;;-147.86;100.00;45836.52;105284;1257;59527;-44
2023/12/07 02:16:43;;;;;;;19.90;11.90;;;;;;;-147.86;100.00;45836.52;105297;1261;73029;-44
2023/12/07 02:19:33;;;;;;;20.40;12.20;;;;;;;-147.86;100.00;45840.05;105276;1262;63794;-45
2023/12/07 02:22:03;;;;;;;18.50;11.20;;;;;;;-147.86;100.00;45848.67;105417;1257;72652;-45
2023/12/07 02:24:33;;;;;;;19.90;11.20;;;;;;;-147.86;100.00;45844.75;105503;1260;59722;-45
2023/12/07 02:27:01;;;;;;;19.00;10.60;;;;;;;-147.86;100.00;45845.14;105634;1260;59562;-47
2023/12/07 02:29:28;;;;;;;16.40;10.60;;;;;;;-147.86;100.00;45844.36;105629;1260;71880;-46
2023/12/07 02:31:56;;;;;;;21.10;11.00;;;;;;;-147.86;100.00;45852.20;105633;1262;65283;-42
2023/12/07 02:34:24;;;;;;;20.50;10.90;;;;;;;-147.86;100.00;45849.85;105568;1259;71205;-47
2023/12/07 02:36:51;;;;;;;18.40;11.10;;;;;;;-147.86;100.00;45852.20;105581;1257;59663;-50
2023/12/07 02:39:19;;;;;;;19.60;11.00;;;;;;;-147.86;100.00;45846.71;105549;1256;59590;-43
2023/12/07 02:41:47;;;;;;;17.60;11.00;;;;;;;-147.86;100.00;45850.63;105542;1256;71574;-47
2023/12/07 02:44:14;;;;;;;17.90;10.70;;;;;;;-147.86;100.00;45848.67;105524;1256;63258;-51
2023/12/07 02:46:42;;;;;;;21.30;10.70;;;;;;;-147.86;100.00;45851.02;105587;1256;71448;-46
2023/12/07 02:49:09;;;;;;;23.00;11.20;;;;;;;-147.86;100.00;45847.89;105378;1260;59734;-44
2023/12/07 02:51:37;;;;;;;18.00;10.30;;;;;;;-147.86;100.00;45852.98;105624;1260;59628;-43
2023/12/07 02:54:05;;;;;;;20.80;10.50;;;;;;;-147.86;100.00;45852.20;105519;1260;73060;-45
2023/12/07 02:56:33;;;;;;;22.70;11.20;;;;;;;-147.86;100.00;45852.98;105612;1262;64127;-42
2023/12/07 02:59:01;;;;;;;19.60;11.30;;;;;;;-147.86;100.00;45852.59;105583;1257;71678;-44
2023/12/07 03:01:29;;;;;;;25.90;12.80;;;;;;;-147.86;100.00;45856.51;105582;1261;60477;-42
2023/12/07 03:03:57;;;;;;;18.70;11.20;;;;;;;-147.86;100.00;45851.02;105578;1260;60488;-42
2023/12/07 03:06:26;;;;;;;19.20;11.30;;;;;;;-147.86;100.00;45817.32;105591;1256;73900;-42
2023/12/07 03:08:54;;;;;;;18.50;10.70;;;;;;;-147.86;100.00;45833.78;105545;1257;64684;-45
2023/12/07 03:11:23;;;;;;;17.80;10.60;;;;;;;-147.86;100.00;45845.14;105587;1257;72645;-42
2023/12/07 03:13:51;;;;;;;17.30;10.50;;;;;;;-147.86;100.00;45846.71;105610;1257;60470;-46
2023/12/07 03:16:19;;;;;;;21.90;12.10;;;;;;;-147.86;100.00;45858.07;105648;1262;60451;-44
2023/12/07 03:18:46;;;;;;;17.90;10.60;;;;;;;-147.86;100.00;45858.46;105640;1258;72035;-46
2023/12/07 03:21:15;;;;;;;19.70;9.90;;;;;;;-147.86;100.00;45857.29;105546;1256;64096;-43
2023/12/07 03:23:43;;;;;;;18.20;9.70;;;;;;;-147.86;100.00;45863.56;105646;1260;71432;-42
2023/12/07 03:26:11;;;;;;;17.80;10.20;;;;;;;-147.86;100.00;45867.09;105541;1257;60508;-41
2023/12/07 03:28:38;;;;;;;22.60;10.10;;;;;;;-147.86;100.00;45871.00;105515;1262;60339;-42
2023/12/07 03:31:06;;;;;;;15.00;9.70;;;;;;;-147.86;100.00;45877.66;105550;1261;72622;-42
2023/12/07 03:33:34;;;;;;;15.20;9.50;;;;;;;-147.86;100.00;45880.02;105596;1260;63901;-45
2023/12/07 03:36:02;;;;;;;13.70;8.90;;;;;;;-147.86;100.00;45887.46;105565;1261;71508;-45
2023/12/07 03:38:30;;;;;;;15.30;9.50;;;;;;;-147.86;100.00;45892.16;105645;1257;60525;-42
2023/12/07 03:40:57;;;;;;;21.40;9.30;;;;;;;-147.86;100.00;45902.35;105646;1262;60457;-42
2023/12/07 03:43:25;;;;;;;15.10;8.80;;;;;;;-147.86;100.00;45901.96;105602;1257;72598;-45
2023/12/07 03:45:53;;;;;;;16.60;9.50;;;;;;;-147.86;100.00;45903.92;105577;1260;63932;-44
2023/12/07 03:48:21;;;;;;;15.30;9.50;;;;;;;-147.86;100.00;45918.02;105588;1258;71367;-41
2023/12/07 03:50:49;;;;;;;18.20;9.50;;;;;;;-147.86;100.00;45923.51;105604;1262;60490;-41
2023/12/07 03:53:16;;;;;;;17.20;10.50;;;;;;;-147.86;100.00;45930.96;105548;1262;60327;-42
2023/12/07 03:55:44;;;;;;;12.70;8.90;;;;;;;-147.86;100.00;45940.76;105589;1257;72643;-43
2023/12/07 03:58:13;;;;;;;16.40;9.50;;;;;;;-147.86;100.00;45952.11;105659;1261;63926;-44
2023/12/07 04:00:41;;;;;;;19.00;11.80;;;;;;;-147.86;100.00;45959.56;105604;1261;72622;-41
2023/12/07 04:03:08;;;;;;;20.50;10.10;;;;;;;-147.86;100.00;45965.44;105588;1258;60469;-42
2023/12/07 04:05:37;;;;;;;20.60;11.50;;;;;;;-147.86;100.00;45978.37;105543;1262;60418;-41
2023/12/07 04:08:05;;;;;;;15.00;9.40;;;;;;;-147.86;100.00;45988.95;105600;1260;73803;-43
2023/12/07 04:10:32;;;;;;;15.20;9.70;;;;;;;-147.86;100.00;45994.05;105672;1257;64258;-42
2023/12/07 04:13:00;;;;;;;15.00;9.70;;;;;;;-147.86;100.00;46004.63;105539;1260;70393;-41
2023/12/07 04:15:28;;;;;;;16.50;9.20;;;;;;;-147.86;100.00;46014.81;105543;1261;60836;-41
2023/12/07 04:17:56;;;;;;;14.30;8.80;;;;;;;-147.86;100.00;46020.69;105584;1262;60321;-44
2023/12/07 04:20:24;;;;;;;15.50;9.30;;;;;;;-147.86;100.00;46027.35;105635;1256;72673;-43
2023/12/07 04:22:52;;;;;;;18.20;8.70;;;;;;;-147.86;100.00;46032.45;105687;1258;62962;-42
2023/12/07 04:25:19;;;;;;;16.50;8.20;;;;;;;-147.86;100.00;46046.16;105575;1261;71798;-44
2023/12/07 04:27:47;;;;;;;16.80;8.70;;;;;;;-147.86;100.00;46048.91;105514;1260;60534;-41
2023/12/07 04:30:15;;;;;;;14.10;8.70;;;;;;;-147.86;100.00;46049.30;105578;1262;60735;-45
2023/12/07 04:32:42;;;;;;;16.40;8.80;;;;;;;-147.86;100.00;46052.04;105508;1262;72931;-44
2023/12/07 04:35:10;;;;;;;13.90;8.30;;;;;;;-147.86;100.00;46055.18;105603;1262;63930;-42
2023/12/07 04:37:38;;;;;;;13.20;8.70;;;;;;;-147.86;100.00;46056.74;105580;1262;71692;-41
2023/12/07 04:40:07;;;;;;;16.60;8.90;;;;;;;-147.86;100.00;46057.92;105518;1259;60611;-43
2023/12/07 04:42:35;;;;;;;18.00;8.90;;;;;;;-147.86;100.00;46058.70;105579;1262;60336;-43
2023/12/07 04:45:03;;;;;;;13.70;7.50;;;;;;;-147.86;100.00;46059.48;105557;1262;72616;-45
2023/12/07 04:47:32;;;;;;;12.90;7.70;;;;;;;-147.86;100.00;46058.30;105622;1260;64068;-44
2023/12/07 04:50:00;;;;;;;16.50;7.80;;;;;;;-147.86;100.00;46055.96;105627;1261;71682;-46
2023/12/07 04:52:28;;;;;;;16.40;8.90;;;;;;;-147.86;100.00;46054.39;105616;1261;60422;-43
2023/12/07 04:54:56;;;;;;;13.60;7.90;;;;;;;-147.86;100.00;46054.79;105602;1260;60422;-42
2023/12/07 04:57:23;;;;;;;12.80;8.20;;;;;;;-147.86;100.00;46049.30;105628;1257;73835;-41
2023/12/07 04:59:51;;;;;;;19.40;10.60;;;;;;;-147.86;100.00;46051.65;105581;1257;65146;-45
2023/12/07 05:02:19;;;;;;;13.70;8.40;;;;;;;-147.86;100.00;46045.77;105613;1261;70887;-43
2023/12/07 05:04:46;;;;;;;14.40;8.70;;;;;;;-147.86;100.00;46041.85;105585;1258;60419;-42
2023/12/07 05:07:14;;;;;;;18.30;9.00;;;;;;;-147.86;100.00;46040.28;105601;1261;60440;-40
2023/12/07 05:09:42;;;;;;;14.60;8.20;;;;;;;-147.86;100.00;46034.01;105618;1262;73798;-44
2023/12/07 05:12:10;;;;;;;11.80;8.20;;;;;;;-147.86;100.00;46029.31;105536;1257;64470;-43
2023/12/07 05:14:37;;;;;;;16.10;8.70;;;;;;;-147.86;100.00;46030.49;105600;1260;72667;-42
2023/12/07 05:18:38;;;;;;;;;;;;;;;-147.86;100.00;45785.59;102782;1294;600374;-45
2023/12/07 05:21:07;;;;;;;15.30;8.80;;;;;;;-147.86;100.00;45860.03;105095;1269;59576;-42
2023/12/07 05:23:35;;;;;;;19.30;8.40;;;;;;;-147.86;100.00;45869.04;104893;1269;60870;-46
2023/12/07 05:26:07;;;;;;;15.60;9.50;;;;;;;-147.86;100.00;45887.86;105100;1266;70994;-42
2023/12/07 05:28:36;;;;;;;17.60;9.50;;;;;;;-147.86;100.00;45906.66;104912;1279;65196;-45
2023/12/07 05:31:04;;;;;;;17.20;9.40;;;;;;;-147.86;100.00;45923.90;104929;1272;71721;-43
2023/12/07 05:33:31;;;;;;;22.50;11.10;;;;;;;-147.86;100.00;45937.62;104927;1267;59954;-41
2023/12/07 05:36:00;;;;;;;17.30;9.00;;;;;;;-147.86;100.00;45949.77;105892;1257;59231;-46
2023/12/07 05:38:28;;;;;;;15.30;8.50;;;;;;;-147.86;100.00;45952.51;105942;1251;71011;-46
2023/12/07 05:40:55;;;;;;;17.00;9.00;;;;;;;-147.86;100.00;45963.87;105875;1257;65717;-46
2023/12/07 05:43:23;;;;;;;14.10;9.00;;;;;;;-147.86;100.00;45964.26;105884;1255;71531;-46
2023/12/07 05:45:51;;;;;;;18.40;10.10;;;;;;;-147.86;100.00;45968.58;105715;1257;59729;-45
2023/12/07 05:48:18;;;;;;;16.20;8.70;;;;;;;-147.86;100.00;45968.57;105724;1254;59601;-44
2023/12/07 05:50:46;;;;;;;13.50;8.20;;;;;;;-147.86;100.00;45967.40;105874;1257;71778;-46
2023/12/07 05:53:14;;;;;;;14.90;8.00;;;;;;;-147.86;100.00;45970.53;105718;1254;64437;-46
2023/12/07 05:55:42;;;;;;;14.80;8.80;;;;;;;-147.86;100.00;45972.10;105717;1254;71701;-44
2023/12/07 05:58:09;;;;;;;14.30;8.80;;;;;;;-147.86;100.00;45969.75;105880;1254;59878;-47
2023/12/07 06:00:37;;;;;;;14.30;8.10;;;;;;;-147.86;100.00;45968.97;105887;1256;59997;-46
2023/12/07 06:03:05;;;;;;;15.50;8.40;;;;;;;-147.86;100.00;45972.89;105703;1257;71745;-44
2023/12/07 06:05:33;;;;;;;17.00;8.70;;;;;;;-147.86;100.00;45967.79;105741;1258;65311;-45
2023/12/07 06:08:00;;;;;;;15.80;9.30;;;;;;;-147.86;100.00;45969.36;105713;1259;71378;-47
2023/12/07 06:10:28;;;;;;;18.50;9.20;;;;;;;-147.86;100.00;45969.75;105890;1262;59676;-43
2023/12/07 06:12:58;;;;;;;16.60;8.60;;;;;;;-147.86;100.00;45966.22;105884;1256;59625;-42
2023/12/07 06:15:27;;;;;;;15.80;8.30;;;;;;;-147.86;100.00;45963.09;105879;1254;72658;-46
2023/12/07 06:17:54;;;;;;;14.30;8.20;;;;;;;-147.86;100.00;45963.88;105897;1267;64065;-43
2023/12/07 06:20:22;;;;;;;18.60;9.10;;;;;;;-147.86;100.00;45964.66;105679;1257;72612;-47
2023/12/07 06:22:50;;;;;;;14.00;8.60;;;;;;;-147.86;100.00;45963.88;105704;1254;59717;-44
2023/12/07 06:25:18;;;;;;;17.10;9.00;;;;;;;-147.86;100.00;45961.13;105723;1261;59632;-42
2023/12/07 06:27:45;;;;;;;18.60;10.00;;;;;;;-147.86;100.00;45963.48;105865;1256;72193;-44
2023/12/07 06:30:14;;;;;;;18.50;10.20;;;;;;;-147.86;100.00;45964.27;105818;1257;65180;-47
2023/12/07 06:32:41;;;;;;;19.20;10.10;;;;;;;-147.86;100.00;45966.62;105699;1258;71718;-46
2023/12/07 06:35:12;;;;;;;22.50;9.80;;;;;;;-147.86;100.00;45967.79;105873;1255;59670;-44
2023/12/07 06:37:41;;;;;;;19.60;9.20;;;;;;;-147.86;100.00;45968.57;105879;1258;61765;-42
2023/12/07 06:40:09;;;;;;;20.10;10.80;;;;;;;-147.86;100.00;45967.79;105950;1258;71850;-45
2023/12/07 06:42:37;;;;;;;20.00;9.20;;;;;;;-147.86;100.00;45976.41;105880;1258;65143;-43
2023/12/07 06:45:10;;;;;;;21.40;10.70;;;;;;;-147.86;100.00;45975.63;105900;1254;71414;-44
2023/12/07 06:47:38;;;;;;;16.40;9.10;;;;;;;-147.86;100.00;45976.41;105878;1257;59625;-43
2023/12/07 06:50:09;;;;;;;16.60;8.40;;;;;;;-147.86;100.00;45974.06;105923;1256;59961;-45
2023/12/07 06:52:38;;;;;;;17.90;9.70;;;;;;;-147.86;100.00;45976.80;105861;1254;71584;-45
2023/12/07 06:55:06;;;;;;;19.70;10.50;;;;;;;-147.86;100.00;45976.80;105735;1258;64134;-42
2023/12/07 06:57:34;;;;;;;21.90;10.30;;;;;;;-147.86;100.00;45979.94;105895;1267;72620;-46
2023/12/07 07:00:05;;;;;;;23.10;10.70;;;;;;;-147.86;100.00;45976.80;105915;1257;59736;-43
2023/12/07 07:02:33;;;;;;;19.30;10.30;;;;;;;-147.86;100.00;45981.51;105759;1258;59656;-46
2023/12/07 07:05:01;;;;;;;19.70;10.30;;;;;;;-147.86;100.00;45978.77;105842;1257;73026;-46
2023/12/07 07:07:31;;;;;;;21.80;10.80;;;;;;;-147.86;100.00;45982.68;105857;1258;64047;-47
2023/12/07 07:09:59;;;;;;;21.70;11.00;;;;;;;-147.86;100.00;45979.54;105865;1258;71339;-43
2023/12/07 07:12:27;;;;;;;24.50;10.40;;;;;;;-147.86;100.00;45979.94;105908;1256;59662;-43
2023/12/07 07:14:55;;;;;;;22.20;11.00;;;;;;;-147.86;100.00;45979.94;105704;1258;59534;-45
2023/12/07 07:17:22;;;;;;;23.40;10.70;;;;;;;-147.86;100.00;45982.68;105744;1257;72056;-44
2023/12/07 07:19:50;;;;;;;21.70;9.80;;;;;;;-147.86;100.00;45981.51;105649;1254;64011;-46
2023/12/07 07:22:18;;;;;;;23.90;10.60;;;;;;;-147.86;100.00;45980.72;105697;1257;71407;-45
2023/12/07 07:24:46;;;;;;;18.60;9.20;;;;;;;-147.86;100.00;45981.51;105680;1258;59705;-46
2023/12/07 07:27:13;;;;;;;18.60;9.70;;;;;;;-147.86;100.00;45977.59;105696;1258;60047;-43
2023/12/07 07:29:41;;;;;;;28.60;11.20;;;;;;;-147.86;100.00;45976.80;105673;1258;72096;-45
2023/12/07 07:32:09;;;;;;;22.60;10.80;;;;;;;-147.86;100.00;45982.29;105873;1255;63921;-44
2023/12/07 07:34:39;;;;;;;21.70;10.50;;;;;;;-147.86;100.00;45979.54;105741;1257;71068;-44
2023/12/07 07:37:07;;;;;;;20.70;10.30;;;;;;;-147.86;100.00;45981.11;105867;1254;60667;-43
2023/12/07 07:39:35;;;;;;;21.50;10.10;;;;;;;-147.86;100.00;45975.23;105732;1257;59638;-44
2023/12/07 07:42:03;;;;;;;21.30;11.40;;;;;;;-147.86;100.00;45978.37;105835;1254;71021;-42
2023/12/07 07:44:30;;;;;;;22.90;11.00;;;;;;;-147.86;100.00;45977.59;105756;1254;64321;-44
2023/12/07 07:46:58;;;;;;;19.20;10.30;;;;;;;-147.86;100.00;45974.45;105855;1254;71426;-44
2023/12/07 07:49:26;;;;;;;19.30;10.90;;;;;;;-147.86;100.00;45975.63;105669;1254;63682;-43
2023/12/07 07:51:53;;;;;;;20.30;10.70;;;;;;;-147.86;100.00;45973.27;105711;1258;60267;-44
2023/12/07 07:54:21;;;;;;;18.60;9.60;;;;;;;-147.86;100.00;45968.18;105827;1256;73098;-43
2023/12/07 07:56:49;;;;;;;16.30;9.90;;;;;;;-147.86;100.00;45967.40;105711;1253;68248;-42
2023/12/07 07:59:17;;;;;;;27.20;14.50;;;;;;;-147.86;100.00;45970.14;105739;1258;72732;-42
2023/12/07 08:01:47;;;;;;;19.10;10.30;;;;;;;-147.86;100.00;45965.83;105658;1255;61966;-46
2023/12/07 08:04:15;;;;;;;17.30;10.10;;;;;;;-147.86;100.00;45963.09;105886;1254;59616;-46
2023/12/07 08:06:43;;;;;;;19.40;10.60;;;;;;;-147.86;100.00;45961.92;105716;1254;73001;-45
2023/12/07 08:09:11;;;;;;;17.00;9.80;;;;;;;-147.86;100.00;45957.60;105820;1254;64047;-44
2023/12/07 08:11:39;;;;;;;16.20;9.80;;;;;;;-147.86;100.00;45948.59;105852;1257;71403;-49
2023/12/07 08:14:06;;;;;;;18.60;9.90;;;;;;;-147.86;100.00;45952.90;105697;1254;61182;-45
2023/12/07 08:16:34;;;;;;;19.00;9.90;;;;;;;-147.86;100.00;45947.02;105531;1257;59846;-46
2023/12/07 08:19:02;;;;;;;14.60;9.20;;;;;;;-147.86;100.00;45948.59;105590;1254;70521;-43
2023/12/07 08:21:30;;;;;;;124.40;61.00;;;;;;;-147.86;100.00;45945.84;105680;1253;63322;-43
2023/12/07 08:23:58;;;;;;;32.50;16.00;;;;;;;-147.86;100.00;45941.14;105870;1257;75470;-47
2023/12/07 08:26:27;;;;;;;19.40;10.00;;;;;;;-147.86;100.00;45937.23;105746;1254;59676;-47
2023/12/07 08:28:56;;;;;;;14.70;8.70;;;;;;;-147.86;100.00;45938.80;105917;1253;59962;-47
2023/12/07 08:31:24;;;;;;;15.30;8.90;;;;;;;-147.86;100.00;45932.52;105892;1254;74794;-45
2023/12/07 08:33:52;;;;;;;18.90;10.10;;;;;;;-147.86;100.00;45930.56;105686;1258;66559;-45
2023/12/07 08:36:21;;;;;;;14.10;8.90;;;;;;;-147.86;100.00;45926.25;105855;1254;74718;-44
2023/12/07 08:38:49;;;;;;;18.10;10.20;;;;;;;-147.86;100.00;45923.90;105676;1254;59873;-45
2023/12/07 08:41:16;;;;;;;23.30;11.70;;;;;;;-147.86;100.00;45921.16;105669;1254;59535;-43
2023/12/07 08:43:44;;;;;;;23.10;12.90;;;;;;;-147.86;100.00;45916.46;105860;1255;72005;-45
2023/12/07 08:46:12;;;;;;;17.70;9.50;;;;;;;-147.86;100.00;45907.05;105700;1257;66545;-42
2023/12/07 08:48:39;;;;;;;12.90;8.30;;;;;;;-147.86;100.00;45905.49;105722;1255;71420;-44
2023/12/07 08:51:10;;;;;;;18.40;9.80;;;;;;;-147.86;100.00;45897.26;105920;1254;59742;-42
2023/12/07 08:53:38;;;;;;;15.50;9.20;;;;;;;-147.86;100.00;45893.73;105729;1254;62837;-41
2023/12/07 08:56:06;;;;;;;13.70;8.60;;;;;;;-147.86;100.00;45883.15;105895;1257;74078;-44
2023/12/07 08:58:34;;;;;;;12.80;8.50;;;;;;;-147.86;100.00;45874.14;105819;1253;64046;-46
2023/12/07 09:01:02;;;;;;;13.20;8.10;;;;;;;-147.86;100.00;45872.57;105669;1257;75548;-43
2023/12/07 09:03:31;;;;;;;12.30;8.20;;;;;;;-147.86;100.00;45864.34;105874;1254;60689;-44
2023/12/07 09:06:01;;;;;;;15.30;8.90;;;;;;;-147.86;100.00;45862.77;105880;1257;59897;-41
2023/12/07 09:08:29;;;;;;;19.10;9.20;;;;;;;-147.86;100.00;45855.33;105855;1254;73572;-42
2023/12/07 09:10:57;;;;;;;12.40;7.80;;;;;;;-147.86;100.00;45848.67;105647;1258;67024;-45
2023/12/07 09:13:25;;;;;;;12.90;7.00;;;;;;;-147.86;100.00;45844.75;105700;1254;72583;-42
2023/12/07 09:15:53;;;;;;;14.00;8.60;;;;;;;-147.86;100.00;45836.52;105833;1257;59729;-43
2023/12/07 09:18:21;;;;;;;12.60;8.00;;;;;;;-147.86;100.00;45818.11;105898;1257;59532;-43
2023/12/07 09:20:49;;;;;;;11.90;7.60;;;;;;;-147.86;100.00;45807.53;105669;1254;71766;-45
2023/12/07 09:23:17;;;;;;;17.20;6.80;;;;;;;-147.86;100.00;45797.73;105714;1253;67606;-44
2023/12/07 09:25:45;;;;;;;11.30;7.50;;;;;;;-147.86;100.00;45794.59;105665;1258;70082;-42
2023/12/07 09:28:13;;;;;;;11.70;7.80;;;;;;;-147.86;100.00;45780.88;105678;1253;63567;-43
2023/12/07 09:30:41;;;;;;;14.50;8.40;;;;;;;-147.86;100.00;45766.38;105869;1257;61445;-43
2023/12/07 09:33:09;;;;;;;13.30;7.40;;;;;;;-147.86;100.00;45760.11;105701;1257;72984;-46
2023/12/07 09:35:36;;;;;;;13.80;8.00;;;;;;;-147.86;100.00;45752.28;105840;1257;63930;-40
2023/12/07 09:38:04;;;;;;;12.90;7.70;;;;;;;-147.86;100.00;45742.48;105719;1259;73992;-41
2023/12/07 09:40:32;;;;;;;15.40;7.80;;;;;;;-147.86;100.00;45733.87;105825;1253;63338;-45
2023/12/07 09:43:00;;;;;;;12.30;7.70;;;;;;;-147.86;100.00;45725.24;105711;1253;61083;-43
2023/12/07 09:45:27;;;;;;;15.70;8.40;;;;;;;-147.86;100.00;45729.95;105670;1257;73771;-43
2023/12/07 09:47:56;;;;;;;12.00;7.90;;;;;;;-147.86;100.00;45726.03;105874;1257;63908;-46
2023/12/07 09:50:25;;;;;;;14.10;8.20;;;;;;;-147.86;100.00;45731.12;105711;1257;75202;-45
2023/12/07 09:52:56;;;;;;;19.80;12.50;;;;;;;-147.86;100.00;45741.70;105868;1257;63595;-43
2023/12/07 09:55:35;;;;;;;14.90;8.80;;;;;;;-147.86;100.00;45744.05;105656;1255;62144;-43
2023/12/07 09:58:05;;;;;;;19.00;10.70;;;;;;;-147.86;100.00;45755.80;105824;1257;75598;-43
2023/12/07 10:00:36;;;;;;;22.90;14.40;;;;;;;-147.86;100.00;45748.75;105879;1254;64124;-42
2023/12/07 10:03:09;;;;;;;19.30;8.70;;;;;;;-147.86;100.00;45757.38;105689;1253;74506;-42
2023/12/07 10:05:57;;;;;;;14.50;9.50;;;;;;;-147.86;100.00;45765.99;105890;1253;63894;-45
2023/12/07 10:08:30;;;;;;;15.00;9.10;;;;;;;-147.86;100.00;45768.34;105728;1257;61424;-44
2023/12/07 10:11:08;;;;;;;30.10;15.10;;;;;;;-147.86;100.00;45764.43;105722;1258;73820;-46
2023/12/07 10:13:36;;;;;;;18.20;10.80;;;;;;;-147.86;100.00;45769.52;105897;1255;65151;-45
2023/12/07 10:16:09;;;;;;;14.40;8.90;;;;;;;-147.86;100.00;45771.09;105686;1254;73430;-45
2023/12/07 10:18:40;;;;;;;18.60;11.60;;;;;;;-147.86;100.00;45767.17;105677;1257;62684;-46
2023/12/07 10:21:11;;;;;;;16.20;9.80;;;;;;;-147.86;100.00;45769.91;105814;1256;60508;-46
2023/12/07 10:23:40;;;;;;;16.60;9.20;;;;;;;-147.86;100.00;45776.57;105900;1254;75350;-43
2023/12/07 10:26:09;;;;;;;13.20;9.00;;;;;;;-147.86;100.00;45775.40;105894;1253;67585;-42
2023/12/07 10:28:37;;;;;;;18.80;10.30;;;;;;;-147.86;100.00;45776.96;105669;1261;76600;-41
2023/12/07 10:31:08;;;;;;;15.40;8.80;;;;;;;-147.86;100.00;45780.10;105724;1254;63829;-45
2023/12/07 10:33:36;;;;;;;20.30;9.50;;;;;;;-147.86;100.00;45778.14;105709;1253;61929;-43
2023/12/07 10:36:06;;;;;;;14.00;8.70;;;;;;;-147.86;100.00;45786.76;105677;1257;76679;-45
2023/12/07 10:38:34;;;;;;;15.00;9.10;;;;;;;-147.86;100.00;45790.29;105894;1253;68046;-46
2023/12/07 10:41:08;;;;;;;18.40;9.80;;;;;;;-147.86;100.00;45802.04;105847;1253;75708;-44
2023/12/07 10:43:42;;;;;;;17.30;10.00;;;;;;;-147.86;100.00;45805.57;105651;1253;60514;-42
2023/12/07 10:46:10;;;;;;;14.10;9.00;;;;;;;-147.86;100.00;45805.18;105733;1253;62505;-45
2023/12/07 10:48:38;;;;;;;14.60;8.60;;;;;;;-147.86;100.00;45821.24;105706;1259;75022;-46
2023/12/07 10:51:10;;;;;;;14.90;8.00;;;;;;;-147.86;100.00;45824.77;105912;1256;67025;-47
2023/12/07 10:53:43;;;;;;;17.20;7.70;;;;;;;-147.86;100.00;45831.82;105944;1253;74024;-42
2023/12/07 10:56:16;;;;;;;19.60;10.20;;;;;;;-147.86;100.00;45832.21;105670;1253;62066;-45
2023/12/07 10:58:44;;;;;;;11.40;8.00;;;;;;;-147.86;100.00;45838.09;105996;1257;62926;-46
2023/12/07 11:01:14;;;;;;;15.70;8.70;;;;;;;-147.86;100.00;45849.85;105726;1258;76634;-46
2023/12/07 11:03:43;;;;;;;22.50;10.40;;;;;;;-147.86;100.00;45851.02;105946;1254;66667;-47
2023/12/07 11:06:11;;;;;;;15.60;9.70;;;;;;;-147.86;100.00;45858.86;105886;1257;72607;-46
2023/12/07 11:08:43;;;;;;;16.60;8.70;;;;;;;-147.86;100.00;45863.16;105978;1256;62315;-44
2023/12/07 11:11:55;;;;;;;15.20;8.30;;;;;;;-147.86;100.00;45867.87;105715;1258;60524;-46
2023/12/07 11:14:22;;;;;;;14.60;9.30;;;;;;;-147.86;100.00;45875.71;105598;1257;75328;-45